Wes Sellars — WDF9302 — position and weather

sailwx.info

Track history (hours):
 
Tides and Currents Weather Stations Pressure Air Temp Water Temp Dewpoint Dewpoint Depression Visibility Wind Speed Wind Dir Waves Ship Positions

Wes Sellars

Owner: Florida Marine, LLC, Mandeville, LA. More information available from US FCC via Universal Licensing System and Coast Guard Vessel Documentation Center.

Last reported at 2017-Apr-26 01:31 UTC. Time now 2017-Apr-27 07:16 UTC.
Position N 29°45' W 095°11'.

Length 27 m; draft 2.9 m.

Type: Towing. MMSI: 367503760.

Date/timePositionNaut miles runAvg speedWind from/ knotsBaromVisibWave heightAir tempDewpointWater temp
2017-Apr-26 01:31N 29°45' W 095°11'0 6.4
2017-Apr-26 01:26N 29°45' W 095°10'1 1.6
2017-Apr-26 00:32N 29°46' W 095°12'1 4.4
2017-Apr-26 00:25N 29°46' W 095°11'1 2.0
2017-Apr-25 23:58N 29°45' W 095°11'1 0.8
2017-Apr-25 22:50N 29°45' W 095°10'1 0.0
2017-Apr-24 13:45N 29°46' W 095°11'0 0.0
2017-Apr-24 13:30N 29°46' W 095°11'0 0.0
2017-Apr-24 13:00N 29°46' W 095°11'0 0.0
2017-Apr-24 10:27N 29°46' W 095°11'0 0.0
2017-Apr-24 09:59N 29°46' W 095°11'0 0.0
2017-Apr-24 08:56N 29°46' W 095°11'0 0.0
2017-Apr-24 08:27N 29°46' W 095°11'0 0.0
2017-Apr-24 07:57N 29°46' W 095°11'0 0.0
2017-Apr-24 06:51N 29°46' W 095°11'0 0.1
2017-Apr-24 06:26N 29°46' W 095°11'0 0.0
2017-Apr-24 05:40N 29°46' W 095°11'0 0.0
2017-Apr-24 05:18N 29°46' W 095°11'0 0.6
2017-Apr-24 05:00N 29°45' W 095°11'1 1.6
2017-Apr-24 04:10N 29°45' W 095°10'0 0.4
2017-Apr-24 03:41N 29°45' W 095°10'0 0.2
2017-Apr-24 03:24N 29°45' W 095°10'0 1.0
2017-Apr-24 02:59N 29°45' W 095°10'1 1.2
2017-Apr-24 02:30N 29°45' W 095°10'0 0.7
2017-Apr-24 01:56N 29°44' W 095°09'5 5.7
2017-Apr-24 01:08N 29°46' W 095°04'1 2.3
2017-Apr-24 00:53N 29°45' W 095°04'4 5.2
2017-Apr-24 00:08N 29°42' W 095°01'2 6.4
2017-Apr-23 23:47N 29°41' W 094°59'5 8.0
2017-Apr-23 23:11N 29°37' W 094°57'70 3.1
2017-Apr-23 00:36N 30°03' W 093°43'1 6.0
2017-Apr-23 00:30N 30°03' W 093°42'3 5.7
2017-Apr-23 00:00N 30°04' W 093°39'3 5.4
2017-Apr-22 23:30N 30°04' W 093°36'3 5.4
2017-Apr-22 23:00N 30°04' W 093°33'3 5.4
2017-Apr-22 22:30N 30°04' W 093°30'3 5.4
2017-Apr-22 22:00N 30°04' W 093°27'3 5.5
2017-Apr-22 21:30N 30°04' W 093°24'2 4.3
2017-Apr-22 21:00N 30°04' W 093°21'2 4.3
2017-Apr-22 20:30N 30°05' W 093°20'2 4.7
2017-Apr-22 20:00N 30°08' W 093°20'1 1.4
2017-Apr-22 19:30N 30°08' W 093°19'0 0.1
2017-Apr-22 19:00N 30°08' W 093°19'0 0.0
2017-Apr-22 18:30N 30°08' W 093°19'0 0.0
2017-Apr-22 18:00N 30°08' W 093°19'0 0.0
2017-Apr-22 17:30N 30°08' W 093°19'0 0.0
2017-Apr-22 17:00N 30°08' W 093°19'0 0.0
2017-Apr-22 16:30N 30°08' W 093°19'0 0.0
2017-Apr-22 16:00N 30°08' W 093°19'0 0.0
2017-Apr-22 15:30N 30°08' W 093°19'0 0.0
2017-Apr-22 15:00N 30°08' W 093°19'0 0.0
2017-Apr-22 14:00N 30°08' W 093°19'0 0.0
2017-Apr-22 13:30N 30°08' W 093°19'0 0.0
2017-Apr-22 13:00N 30°08' W 093°19'0 0.0
2017-Apr-22 12:30N 30°08' W 093°19'0 0.0
2017-Apr-22 12:00N 30°08' W 093°19'0 0.0
2017-Apr-22 11:30N 30°08' W 093°19'0 0.0
2017-Apr-22 11:00N 30°08' W 093°19'0 0.0
2017-Apr-22 10:30N 30°08' W 093°19'0 0.0
2017-Apr-22 10:00N 30°08' W 093°19'0 0.0
2017-Apr-22 09:30N 30°08' W 093°19'0 0.0
2017-Apr-22 09:00N 30°08' W 093°19'0 0.0
2017-Apr-22 08:30N 30°08' W 093°19'0 0.0
2017-Apr-22 08:00N 30°08' W 093°19'0 0.0
2017-Apr-22 07:30N 30°08' W 093°19'0 0.0
2017-Apr-22 07:00N 30°08' W 093°19'0 0.0
2017-Apr-22 06:30N 30°08' W 093°19'0 0.0
2017-Apr-22 06:00N 30°08' W 093°19'0 0.0
2017-Apr-22 05:30N 30°08' W 093°19'0 0.0
2017-Apr-22 05:00N 30°08' W 093°19'0 0.0
2017-Apr-22 04:30N 30°08' W 093°19'1 1.4
2017-Apr-22 04:00N 30°08' W 093°20'3 5.8
2017-Apr-22 03:30N 30°05' W 093°20'2 3.1
2017-Apr-22 03:00N 30°04' W 093°21'2 4.4
2017-Apr-22 02:30N 30°04' W 093°24'3 5.8
2017-Apr-22 02:00N 30°04' W 093°27'3 6.4
2017-Apr-22 01:30N 30°04' W 093°31'3 6.5
2017-Apr-22 01:00N 30°04' W 093°35'3 6.9
2017-Apr-22 00:30N 30°04' W 093°39'3 6.6
2017-Apr-22 00:00N 30°03' W 093°42'70 5.2
2017-Apr-21 10:28N 29°25' W 094°49'4 8.5
2017-Apr-21 10:00N 29°28' W 094°51'4 8.1
2017-Apr-21 09:30N 29°32' W 094°54'4 8.0
2017-Apr-21 09:00N 29°35' W 094°56'4 8.4
2017-Apr-21 08:30N 29°39' W 094°58'4 7.4
2017-Apr-21 08:00N 29°42' W 095°00'3 6.4
2017-Apr-21 07:30N 29°44' W 095°03'2 4.9
2017-Apr-21 06:59N 29°45' W 095°06'0 0.1
2017-Apr-21 04:56N 29°45' W 095°06'0 0.0
2017-Apr-21 04:00N 29°45' W 095°06'0 0.0
2017-Apr-21 02:27N 29°45' W 095°06'0 0.0
2017-Apr-21 01:57N 29°45' W 095°06'0 0.0
2017-Apr-21 01:25N 29°45' W 095°06'0 0.0
2017-Apr-21 01:00N 29°45' W 095°06'0 0.0
2017-Apr-21 00:30N 29°45' W 095°06'0 0.0
2017-Apr-21 00:00N 29°45' W 095°06'0 0.0
2017-Apr-20 23:30N 29°45' W 095°06'0 0.0
2017-Apr-20 23:00N 29°45' W 095°06'0 0.0
2017-Apr-20 22:30N 29°45' W 095°06'0 0.0
2017-Apr-20 22:00N 29°45' W 095°06'0 0.0
2017-Apr-20 21:30N 29°45' W 095°06'0 0.0
2017-Apr-20 21:00N 29°45' W 095°06'0 0.0
2017-Apr-20 20:30N 29°45' W 095°06'0 0.0
2017-Apr-20 20:00N 29°45' W 095°06'0 0.0
2017-Apr-20 19:30N 29°45' W 095°06'0 0.0
2017-Apr-20 19:00N 29°45' W 095°06'0 0.0
2017-Apr-20 18:30N 29°45' W 095°06'0 0.0
2017-Apr-20 18:00N 29°45' W 095°06'0 0.0
2017-Apr-20 17:30N 29°45' W 095°06'0 0.0
2017-Apr-20 17:00N 29°45' W 095°06'0 0.0
2017-Apr-20 16:30N 29°45' W 095°06'0 0.0
2017-Apr-20 16:00N 29°45' W 095°06'0 0.0
2017-Apr-20 15:30N 29°45' W 095°06'0 0.0
2017-Apr-20 14:59N 29°45' W 095°06'0 0.0
2017-Apr-20 14:24N 29°45' W 095°06'0 0.0
2017-Apr-20 13:30N 29°45' W 095°06'0 0.0
2017-Apr-20 13:00N 29°45' W 095°06'0 0.0
2017-Apr-20 12:30N 29°45' W 095°06'0 0.0
2017-Apr-20 12:00N 29°45' W 095°06'0 0.0
2017-Apr-20 11:30N 29°45' W 095°06'0 0.0
2017-Apr-20 11:00N 29°45' W 095°06'0 0.0
2017-Apr-20 10:30N 29°45' W 095°06'0 0.0
2017-Apr-20 10:00N 29°45' W 095°06'0 0.0
2017-Apr-20 09:30N 29°45' W 095°06'0 0.0
2017-Apr-20 09:00N 29°45' W 095°06'0 0.0
2017-Apr-20 08:30N 29°45' W 095°06'0 0.0
2017-Apr-20 08:00N 29°45' W 095°06'0 0.0
2017-Apr-20 07:30N 29°45' W 095°06'0 0.0
2017-Apr-20 07:00N 29°45' W 095°06'0 0.0
2017-Apr-20 06:30N 29°45' W 095°06'0 0.0
2017-Apr-20 06:00N 29°45' W 095°06'0 0.0
2017-Apr-20 05:30N 29°45' W 095°06'0 0.0
2017-Apr-20 05:00N 29°45' W 095°06'0 0.0
2017-Apr-20 04:30N 29°45' W 095°06'0 0.0
2017-Apr-20 04:00N 29°45' W 095°06'0 0.0
2017-Apr-20 03:30N 29°45' W 095°06'0 0.0
2017-Apr-20 03:00N 29°45' W 095°06'0 0.1
2017-Apr-20 02:30N 29°45' W 095°06'1 2.3
2017-Apr-20 02:00N 29°46' W 095°05'1 0.1
2017-Apr-19 18:27N 29°45' W 095°06'2 5.4
2017-Apr-19 17:59N 29°44' W 095°09'2 5.0
2017-Apr-19 17:30N 29°45' W 095°11'1 2.1
2017-Apr-19 16:59N 29°44' W 095°12'0 0.0
2017-Apr-19 16:23N 29°44' W 095°12'0 0.0
2017-Apr-19 15:58N 29°44' W 095°12'0 0.0
2017-Apr-19 15:30N 29°44' W 095°12'0 0.0
2017-Apr-19 15:00N 29°44' W 095°12'0 0.0
2017-Apr-19 14:16N 29°44' W 095°12'0 0.0
2017-Apr-19 09:35N 29°44' W 095°12'0 0.0
2017-Apr-19 08:46N 29°44' W 095°12'0 0.0
2017-Apr-19 08:25N 29°44' W 095°12'0 0.0
2017-Apr-19 08:00N 29°44' W 095°12'0 0.0
2017-Apr-19 07:22N 29°44' W 095°12'0 0.0
2017-Apr-19 06:13N 29°44' W 095°12'0 0.0
2017-Apr-19 05:28N 29°44' W 095°12'0 0.0
2017-Apr-19 00:08N 29°44' W 095°12'0 0.0
2017-Apr-18 18:12N 29°44' W 095°12'0 0.0
2017-Apr-18 17:45N 29°44' W 095°12'0 0.0
2017-Apr-18 17:30N 29°44' W 095°12'0 0.0
2017-Apr-18 16:57N 29°44' W 095°12'0 0.0
2017-Apr-18 16:30N 29°44' W 095°12'0 0.0
2017-Apr-18 15:58N 29°44' W 095°12'0 0.0
2017-Apr-18 15:29N 29°44' W 095°12'0 0.0
2017-Apr-18 15:00N 29°44' W 095°12'0 0.0
2017-Apr-18 14:27N 29°44' W 095°12'0 0.0
2017-Apr-18 13:30N 29°44' W 095°12'0 0.0
2017-Apr-18 13:00N 29°44' W 095°12'0 0.0
2017-Apr-18 12:30N 29°44' W 095°12'0 0.0
2017-Apr-18 12:00N 29°44' W 095°12'0 0.0
2017-Apr-18 11:30N 29°44' W 095°12'0 0.0
2017-Apr-18 11:00N 29°44' W 095°12'0 0.0
2017-Apr-18 10:30N 29°44' W 095°12'0 0.0
2017-Apr-18 10:00N 29°44' W 095°12'0 0.0
2017-Apr-18 09:30N 29°44' W 095°12'0 0.0
2017-Apr-18 09:00N 29°44' W 095°12'0 0.0
2017-Apr-18 08:30N 29°44' W 095°12'0 0.0
2017-Apr-18 08:00N 29°44' W 095°12'0 0.0
2017-Apr-18 07:30N 29°44' W 095°12'0 0.0
2017-Apr-18 07:00N 29°44' W 095°12'0 0.0
2017-Apr-18 06:29N 29°44' W 095°12'0 0.0
2017-Apr-18 06:00N 29°44' W 095°12'0 0.0
2017-Apr-18 05:30N 29°44' W 095°12'0 0.0
2017-Apr-18 05:00N 29°44' W 095°12'0 0.0
2017-Apr-18 04:30N 29°44' W 095°12'0 0.0
2017-Apr-18 04:00N 29°44' W 095°12'0 0.0
2017-Apr-18 03:30N 29°44' W 095°12'0 0.0
2017-Apr-18 03:00N 29°44' W 095°12'0 0.0
2017-Apr-18 02:30N 29°44' W 095°12'0 0.0
2017-Apr-18 02:00N 29°44' W 095°12'0 0.0
2017-Apr-18 01:30N 29°44' W 095°12'0 0.0
2017-Apr-18 01:00N 29°44' W 095°12'0 0.0
2017-Apr-18 00:30N 29°44' W 095°12'0 0.0
2017-Apr-18 00:00N 29°44' W 095°12'0 0.0
2017-Apr-17 23:17N 29°44' W 095°12'0 0.0
2017-Apr-17 23:00N 29°44' W 095°12'0 0.0
2017-Apr-17 22:29N 29°44' W 095°12'0 0.0
2017-Apr-17 22:00N 29°44' W 095°12'1 0.0
2017-Apr-17 10:19N 29°44' W 095°12'2 5.3
2017-Apr-17 09:54N 29°44' W 095°09'6 4.5
2017-Apr-17 08:37N 29°47' W 095°04'0 0.0
2017-Apr-17 08:13N 29°47' W 095°04'0 0.6
2017-Apr-17 07:56N 29°47' W 095°04'0 0.1
2017-Apr-17 07:26N 29°47' W 095°04'0 0.1
2017-Apr-17 06:54N 29°47' W 095°04'2 0.2
2017-Apr-16 21:34N 29°46' W 095°06'0 0.0
2017-Apr-16 21:10N 29°46' W 095°06'0 0.0
2017-Apr-16 20:50N 29°46' W 095°06'1 0.3
2017-Apr-16 18:57N 29°47' W 095°06'  
Track history (hours):
 
Tides and Currents Weather Stations Pressure Air Temp Water Temp Dewpoint Dewpoint Depression Visibility Wind Speed Wind Dir Waves Ship Positions

Wes Sellars

Owner: Florida Marine, LLC, Mandeville, LA. More information available from US FCC via Universal Licensing System and Coast Guard Vessel Documentation Center.

Last reported at 2017-Apr-26 01:31 UTC. Time now 2017-Apr-27 07:16 UTC.
Position N 29°45' W 095°11'.

Length 27 m; draft 2.9 m.

Type: Towing. MMSI: 367503760.

Date/timePositionNaut miles runAvg speedWind from/ knotsBaromVisibWave heightAir tempDewpointWater temp
2017-Apr-26 01:31N 29°45' W 095°11'0 6.4
2017-Apr-26 01:26N 29°45' W 095°10'1 1.6
2017-Apr-26 00:32N 29°46' W 095°12'1 4.4
2017-Apr-26 00:25N 29°46' W 095°11'1 2.0
2017-Apr-25 23:58N 29°45' W 095°11'1 0.8
2017-Apr-25 22:50N 29°45' W 095°10'1 0.0
2017-Apr-24 13:45N 29°46' W 095°11'0 0.0
2017-Apr-24 13:30N 29°46' W 095°11'0 0.0
2017-Apr-24 13:00N 29°46' W 095°11'0 0.0
2017-Apr-24 10:27N 29°46' W 095°11'0 0.0
2017-Apr-24 09:59N 29°46' W 095°11'0 0.0
2017-Apr-24 08:56N 29°46' W 095°11'0 0.0
2017-Apr-24 08:27N 29°46' W 095°11'0 0.0
2017-Apr-24 07:57N 29°46' W 095°11'0 0.0
2017-Apr-24 06:51N 29°46' W 095°11'0 0.1
2017-Apr-24 06:26N 29°46' W 095°11'0 0.0
2017-Apr-24 05:40N 29°46' W 095°11'0 0.0
2017-Apr-24 05:18N 29°46' W 095°11'0 0.6
2017-Apr-24 05:00N 29°45' W 095°11'1 1.6
2017-Apr-24 04:10N 29°45' W 095°10'0 0.4
2017-Apr-24 03:41N 29°45' W 095°10'0 0.2
2017-Apr-24 03:24N 29°45' W 095°10'0 1.0
2017-Apr-24 02:59N 29°45' W 095°10'1 1.2
2017-Apr-24 02:30N 29°45' W 095°10'0 0.7
2017-Apr-24 01:56N 29°44' W 095°09'5 5.7
2017-Apr-24 01:08N 29°46' W 095°04'1 2.3
2017-Apr-24 00:53N 29°45' W 095°04'4 5.2
2017-Apr-24 00:08N 29°42' W 095°01'2 6.4
2017-Apr-23 23:47N 29°41' W 094°59'5 8.0
2017-Apr-23 23:11N 29°37' W 094°57'70 3.1
2017-Apr-23 00:36N 30°03' W 093°43'1 6.0
2017-Apr-23 00:30N 30°03' W 093°42'3 5.7
2017-Apr-23 00:00N 30°04' W 093°39'3 5.4
2017-Apr-22 23:30N 30°04' W 093°36'3 5.4
2017-Apr-22 23:00N 30°04' W 093°33'3 5.4
2017-Apr-22 22:30N 30°04' W 093°30'3 5.4
2017-Apr-22 22:00N 30°04' W 093°27'3 5.5
2017-Apr-22 21:30N 30°04' W 093°24'2 4.3
2017-Apr-22 21:00N 30°04' W 093°21'2 4.3
2017-Apr-22 20:30N 30°05' W 093°20'2 4.7
2017-Apr-22 20:00N 30°08' W 093°20'1 1.4
2017-Apr-22 19:30N 30°08' W 093°19'0 0.1
2017-Apr-22 19:00N 30°08' W 093°19'0 0.0
2017-Apr-22 18:30N 30°08' W 093°19'0 0.0
2017-Apr-22 18:00N 30°08' W 093°19'0 0.0
2017-Apr-22 17:30N 30°08' W 093°19'0 0.0
2017-Apr-22 17:00N 30°08' W 093°19'0 0.0
2017-Apr-22 16:30N 30°08' W 093°19'0 0.0
2017-Apr-22 16:00N 30°08' W 093°19'0 0.0
2017-Apr-22 15:30N 30°08' W 093°19'0 0.0
2017-Apr-22 15:00N 30°08' W 093°19'0 0.0
2017-Apr-22 14:00N 30°08' W 093°19'0 0.0
2017-Apr-22 13:30N 30°08' W 093°19'0 0.0
2017-Apr-22 13:00N 30°08' W 093°19'0 0.0
2017-Apr-22 12:30N 30°08' W 093°19'0 0.0
2017-Apr-22 12:00N 30°08' W 093°19'0 0.0
2017-Apr-22 11:30N 30°08' W 093°19'0 0.0
2017-Apr-22 11:00N 30°08' W 093°19'0 0.0
2017-Apr-22 10:30N 30°08' W 093°19'0 0.0
2017-Apr-22 10:00N 30°08' W 093°19'0 0.0
2017-Apr-22 09:30N 30°08' W 093°19'0 0.0
2017-Apr-22 09:00N 30°08' W 093°19'0 0.0
2017-Apr-22 08:30N 30°08' W 093°19'0 0.0
2017-Apr-22 08:00N 30°08' W 093°19'0 0.0
2017-Apr-22 07:30N 30°08' W 093°19'0 0.0
2017-Apr-22 07:00N 30°08' W 093°19'0 0.0
2017-Apr-22 06:30N 30°08' W 093°19'0 0.0
2017-Apr-22 06:00N 30°08' W 093°19'0 0.0
2017-Apr-22 05:30N 30°08' W 093°19'0 0.0
2017-Apr-22 05:00N 30°08' W 093°19'0 0.0
2017-Apr-22 04:30N 30°08' W 093°19'1 1.4
2017-Apr-22 04:00N 30°08' W 093°20'3 5.8
2017-Apr-22 03:30N 30°05' W 093°20'2 3.1
2017-Apr-22 03:00N 30°04' W 093°21'2 4.4
2017-Apr-22 02:30N 30°04' W 093°24'3 5.8
2017-Apr-22 02:00N 30°04' W 093°27'3 6.4
2017-Apr-22 01:30N 30°04' W 093°31'3 6.5
2017-Apr-22 01:00N 30°04' W 093°35'3 6.9
2017-Apr-22 00:30N 30°04' W 093°39'3 6.6
2017-Apr-22 00:00N 30°03' W 093°42'70 5.2
2017-Apr-21 10:28N 29°25' W 094°49'4 8.5
2017-Apr-21 10:00N 29°28' W 094°51'4 8.1
2017-Apr-21 09:30N 29°32' W 094°54'4 8.0
2017-Apr-21 09:00N 29°35' W 094°56'4 8.4
2017-Apr-21 08:30N 29°39' W 094°58'4 7.4
2017-Apr-21 08:00N 29°42' W 095°00'3 6.4
2017-Apr-21 07:30N 29°44' W 095°03'2 4.9
2017-Apr-21 06:59N 29°45' W 095°06'0 0.1
2017-Apr-21 04:56N 29°45' W 095°06'0 0.0
2017-Apr-21 04:00N 29°45' W 095°06'0 0.0
2017-Apr-21 02:27N 29°45' W 095°06'0 0.0
2017-Apr-21 01:57N 29°45' W 095°06'0 0.0
2017-Apr-21 01:25N 29°45' W 095°06'0 0.0
2017-Apr-21 01:00N 29°45' W 095°06'0 0.0
2017-Apr-21 00:30N 29°45' W 095°06'0 0.0
2017-Apr-21 00:00N 29°45' W 095°06'0 0.0
2017-Apr-20 23:30N 29°45' W 095°06'0 0.0
2017-Apr-20 23:00N 29°45' W 095°06'0 0.0
2017-Apr-20 22:30N 29°45' W 095°06'0 0.0
2017-Apr-20 22:00N 29°45' W 095°06'0 0.0
2017-Apr-20 21:30N 29°45' W 095°06'0 0.0
2017-Apr-20 21:00N 29°45' W 095°06'0 0.0
2017-Apr-20 20:30N 29°45' W 095°06'0 0.0
2017-Apr-20 20:00N 29°45' W 095°06'0 0.0
2017-Apr-20 19:30N 29°45' W 095°06'0 0.0
2017-Apr-20 19:00N 29°45' W 095°06'0 0.0
2017-Apr-20 18:30N 29°45' W 095°06'0 0.0
2017-Apr-20 18:00N 29°45' W 095°06'0 0.0
2017-Apr-20 17:30N 29°45' W 095°06'0 0.0
2017-Apr-20 17:00N 29°45' W 095°06'0 0.0
2017-Apr-20 16:30N 29°45' W 095°06'0 0.0
2017-Apr-20 16:00N 29°45' W 095°06'0 0.0
2017-Apr-20 15:30N 29°45' W 095°06'0 0.0
2017-Apr-20 14:59N 29°45' W 095°06'0 0.0
2017-Apr-20 14:24N 29°45' W 095°06'0 0.0
2017-Apr-20 13:30N 29°45' W 095°06'0 0.0
2017-Apr-20 13:00N 29°45' W 095°06'0 0.0
2017-Apr-20 12:30N 29°45' W 095°06'0 0.0
2017-Apr-20 12:00N 29°45' W 095°06'0 0.0
2017-Apr-20 11:30N 29°45' W 095°06'0 0.0
2017-Apr-20 11:00N 29°45' W 095°06'0 0.0
2017-Apr-20 10:30N 29°45' W 095°06'0 0.0
2017-Apr-20 10:00N 29°45' W 095°06'0 0.0
2017-Apr-20 09:30N 29°45' W 095°06'0 0.0
2017-Apr-20 09:00N 29°45' W 095°06'0 0.0
2017-Apr-20 08:30N 29°45' W 095°06'0 0.0
2017-Apr-20 08:00N 29°45' W 095°06'0 0.0
2017-Apr-20 07:30N 29°45' W 095°06'0 0.0
2017-Apr-20 07:00N 29°45' W 095°06'0 0.0
2017-Apr-20 06:30N 29°45' W 095°06'0 0.0
2017-Apr-20 06:00N 29°45' W 095°06'0 0.0
2017-Apr-20 05:30N 29°45' W 095°06'0 0.0
2017-Apr-20 05:00N 29°45' W 095°06'0 0.0
2017-Apr-20 04:30N 29°45' W 095°06'0 0.0
2017-Apr-20 04:00N 29°45' W 095°06'0 0.0
2017-Apr-20 03:30N 29°45' W 095°06'0 0.0
2017-Apr-20 03:00N 29°45' W 095°06'0 0.1
2017-Apr-20 02:30N 29°45' W 095°06'1 2.3
2017-Apr-20 02:00N 29°46' W 095°05'1 0.1
2017-Apr-19 18:27N 29°45' W 095°06'2 5.4
2017-Apr-19 17:59N 29°44' W 095°09'2 5.0
2017-Apr-19 17:30N 29°45' W 095°11'1 2.1
2017-Apr-19 16:59N 29°44' W 095°12'0 0.0
2017-Apr-19 16:23N 29°44' W 095°12'0 0.0
2017-Apr-19 15:58N 29°44' W 095°12'0 0.0
2017-Apr-19 15:30N 29°44' W 095°12'0 0.0
2017-Apr-19 15:00N 29°44' W 095°12'0 0.0
2017-Apr-19 14:16N 29°44' W 095°12'0 0.0
2017-Apr-19 09:35N 29°44' W 095°12'0 0.0
2017-Apr-19 08:46N 29°44' W 095°12'0 0.0
2017-Apr-19 08:25N 29°44' W 095°12'0 0.0
2017-Apr-19 08:00N 29°44' W 095°12'0 0.0
2017-Apr-19 07:22N 29°44' W 095°12'0 0.0
2017-Apr-19 06:13N 29°44' W 095°12'0 0.0
2017-Apr-19 05:28N 29°44' W 095°12'0 0.0
2017-Apr-19 00:08N 29°44' W 095°12'0 0.0
2017-Apr-18 18:12N 29°44' W 095°12'0 0.0
2017-Apr-18 17:45N 29°44' W 095°12'0 0.0
2017-Apr-18 17:30N 29°44' W 095°12'0 0.0
2017-Apr-18 16:57N 29°44' W 095°12'0 0.0
2017-Apr-18 16:30N 29°44' W 095°12'0 0.0
2017-Apr-18 15:58N 29°44' W 095°12'0 0.0
2017-Apr-18 15:29N 29°44' W 095°12'0 0.0
2017-Apr-18 15:00N 29°44' W 095°12'0 0.0
2017-Apr-18 14:27N 29°44' W 095°12'0 0.0
2017-Apr-18 13:30N 29°44' W 095°12'0 0.0
2017-Apr-18 13:00N 29°44' W 095°12'0 0.0
2017-Apr-18 12:30N 29°44' W 095°12'0 0.0
2017-Apr-18 12:00N 29°44' W 095°12'0 0.0
2017-Apr-18 11:30N 29°44' W 095°12'0 0.0
2017-Apr-18 11:00N 29°44' W 095°12'0 0.0
2017-Apr-18 10:30N 29°44' W 095°12'0 0.0
2017-Apr-18 10:00N 29°44' W 095°12'0 0.0
2017-Apr-18 09:30N 29°44' W 095°12'0 0.0
2017-Apr-18 09:00N 29°44' W 095°12'0 0.0
2017-Apr-18 08:30N 29°44' W 095°12'0 0.0
2017-Apr-18 08:00N 29°44' W 095°12'0 0.0
2017-Apr-18 07:30N 29°44' W 095°12'0 0.0
2017-Apr-18 07:00N 29°44' W 095°12'0 0.0
2017-Apr-18 06:29N 29°44' W 095°12'0 0.0
2017-Apr-18 06:00N 29°44' W 095°12'0 0.0
2017-Apr-18 05:30N 29°44' W 095°12'0 0.0
2017-Apr-18 05:00N 29°44' W 095°12'0 0.0
2017-Apr-18 04:30N 29°44' W 095°12'0 0.0
2017-Apr-18 04:00N 29°44' W 095°12'0 0.0
2017-Apr-18 03:30N 29°44' W 095°12'0 0.0
2017-Apr-18 03:00N 29°44' W 095°12'0 0.0
2017-Apr-18 02:30N 29°44' W 095°12'0 0.0
2017-Apr-18 02:00N 29°44' W 095°12'0 0.0
2017-Apr-18 01:30N 29°44' W 095°12'0 0.0
2017-Apr-18 01:00N 29°44' W 095°12'0 0.0
2017-Apr-18 00:30N 29°44' W 095°12'0 0.0
2017-Apr-18 00:00N 29°44' W 095°12'0 0.0
2017-Apr-17 23:17N 29°44' W 095°12'0 0.0
2017-Apr-17 23:00N 29°44' W 095°12'0 0.0
2017-Apr-17 22:29N 29°44' W 095°12'0 0.0
2017-Apr-17 22:00N 29°44' W 095°12'1 0.0
2017-Apr-17 10:19N 29°44' W 095°12'2 5.3
2017-Apr-17 09:54N 29°44' W 095°09'6 4.5
2017-Apr-17 08:37N 29°47' W 095°04'0 0.0
2017-Apr-17 08:13N 29°47' W 095°04'0 0.6
2017-Apr-17 07:56N 29°47' W 095°04'0 0.1
2017-Apr-17 07:26N 29°47' W 095°04'0 0.1
2017-Apr-17 06:54N 29°47' W 095°04'2 0.2
2017-Apr-16 21:34N 29°46' W 095°06'0 0.0
2017-Apr-16 21:10N 29°46' W 095°06'0 0.0
2017-Apr-16 20:50N 29°46' W 095°06'1 0.3
2017-Apr-16 18:57N 29°47' W 095°06'  

Dump ship's entire track history